createdAt,value
2023-04-08T00:01:07.861Z,3.70
2023-04-08T00:03:37.239Z,3.60
2023-04-08T00:06:05.497Z,3.80
2023-04-08T00:08:33.343Z,3.90
2023-04-08T00:11:04.042Z,3.72
2023-04-08T00:13:32.000Z,3.70
2023-04-08T00:15:59.922Z,3.70
2023-04-08T00:18:28.384Z,3.80
2023-04-08T00:20:58.246Z,4.10
2023-04-08T00:23:26.038Z,4.10
2023-04-08T00:25:53.873Z,3.92
2023-04-08T00:28:21.929Z,3.88
2023-04-08T00:30:49.772Z,3.65
2023-04-08T00:33:17.857Z,3.90
2023-04-08T00:35:46.313Z,3.63
2023-04-08T00:38:15.590Z,3.70
2023-04-08T00:40:43.672Z,3.45
2023-04-08T00:43:11.593Z,3.95
2023-04-08T00:45:39.511Z,3.88
2023-04-08T00:48:07.480Z,3.85
2023-04-08T00:50:35.448Z,3.97
2023-04-08T00:53:03.250Z,3.80
2023-04-08T00:55:32.572Z,3.53
2023-04-08T00:58:00.776Z,3.63
2023-04-08T01:00:30.406Z,3.60
2023-04-08T01:03:07.127Z,3.85
2023-04-08T01:05:51.169Z,3.72
2023-04-08T01:08:19.832Z,3.75
2023-04-08T01:10:52.180Z,3.80
2023-04-08T01:13:23.424Z,3.50
2023-04-08T01:15:51.622Z,3.58
2023-04-08T01:18:20.659Z,3.83
2023-04-08T01:20:50.831Z,3.60
2023-04-08T01:23:24.371Z,3.70
2023-04-08T01:25:54.786Z,3.55
2023-04-08T01:28:26.244Z,3.58
2023-04-08T01:30:56.640Z,3.65
2023-04-08T01:33:25.863Z,3.83
2023-04-08T01:35:55.944Z,3.55
2023-04-08T01:38:25.999Z,3.33
2023-04-08T01:40:57.000Z,3.50
2023-04-08T01:43:27.108Z,3.17
2023-04-08T01:45:58.593Z,4.28
2023-04-08T01:48:28.201Z,3.50
2023-04-08T01:50:58.239Z,3.67
2023-04-08T01:53:26.372Z,3.20
2023-04-08T01:56:02.934Z,3.42
2023-04-08T01:58:34.226Z,3.30
2023-04-08T02:01:02.653Z,3.65
2023-04-08T02:03:31.884Z,3.30
2023-04-08T02:06:01.020Z,3.13
2023-04-08T02:08:28.795Z,3.60
2023-04-08T02:10:57.992Z,3.58
2023-04-08T02:13:26.033Z,3.28
2023-04-08T02:16:03.605Z,3.15
2023-04-08T02:18:33.392Z,3.30
2023-04-08T02:21:09.741Z,3.28
2023-04-08T02:23:39.866Z,3.25
2023-04-08T02:26:15.099Z,3.20
2023-04-08T02:28:43.902Z,3.30
2023-04-08T02:31:13.839Z,3.10
2023-04-08T02:33:42.624Z,3.08
2023-04-08T02:36:12.239Z,3.40
2023-04-08T02:38:40.749Z,3.10
2023-04-08T02:41:09.954Z,3.40
2023-04-08T02:43:37.958Z,3.08
2023-04-08T02:46:05.969Z,3.10
2023-04-08T02:48:34.018Z,3.15
2023-04-08T02:51:04.423Z,3.20
2023-04-08T02:53:32.786Z,3.33
2023-04-08T02:56:00.711Z,2.90
2023-04-08T02:58:29.978Z,3.17
2023-04-08T03:00:57.917Z,2.85
2023-04-08T03:03:29.673Z,2.95
2023-04-08T03:05:58.231Z,3.15
2023-04-08T03:08:26.470Z,3.10
2023-04-08T03:10:54.614Z,3.00
2023-04-08T03:13:22.376Z,3.47
2023-04-08T03:15:51.736Z,2.95
2023-04-08T03:18:19.615Z,3.05
2023-04-08T03:20:47.520Z,2.95
2023-04-08T03:23:15.361Z,2.72
2023-04-08T03:25:43.160Z,3.03
2023-04-08T03:28:11.066Z,2.88
2023-04-08T03:30:39.112Z,3.13
2023-04-08T03:33:08.922Z,3.20
2023-04-08T03:35:37.504Z,2.83
2023-04-08T03:38:05.474Z,3.20
2023-04-08T03:40:33.288Z,2.90
2023-04-08T03:43:01.181Z,3.08
2023-04-08T03:45:29.063Z,3.10
2023-04-08T03:47:56.943Z,2.88
2023-04-08T03:50:26.192Z,3.08
2023-04-08T03:52:54.042Z,3.10
2023-04-08T03:55:21.782Z,3.10
2023-04-08T03:57:49.684Z,3.30
2023-04-08T04:00:17.695Z,3.40
2023-04-08T04:02:45.513Z,2.83
2023-04-08T04:05:13.348Z,3.03
2023-04-08T04:07:42.552Z,2.80
2023-04-08T04:10:11.944Z,3.42
2023-04-08T04:12:39.839Z,3.05
2023-04-08T04:15:08.815Z,3.20
2023-04-08T04:17:36.711Z,3.15
2023-04-08T04:20:05.736Z,3.30
2023-04-08T04:22:33.712Z,3.30
2023-04-08T04:25:03.062Z,3.25
2023-04-08T04:27:30.989Z,3.03
2023-04-08T04:29:58.750Z,3.40
2023-04-08T04:32:26.592Z,3.60
2023-04-08T04:34:54.435Z,3.20
2023-04-08T04:37:22.482Z,3.40
2023-04-08T04:39:50.561Z,3.35
2023-04-08T04:42:19.756Z,3.33
2023-04-08T04:44:47.959Z,3.58
2023-04-08T04:47:16.492Z,3.35
2023-04-08T04:49:45.721Z,3.40
2023-04-08T04:52:13.599Z,3.95
2023-04-08T04:54:41.428Z,4.32
2023-04-08T04:57:09.220Z,3.80
2023-04-08T04:59:38.503Z,3.70
2023-04-08T05:02:06.450Z,4.07
2023-04-08T05:04:34.469Z,3.85
2023-04-08T05:07:02.368Z,3.50
2023-04-08T05:09:30.884Z,3.75
2023-04-08T05:11:59.328Z,3.80
2023-04-08T05:14:30.425Z,3.67
2023-04-08T05:16:59.827Z,3.50
2023-04-08T05:19:27.656Z,3.85
2023-04-08T05:21:55.454Z,3.83
2023-04-08T05:24:23.321Z,3.58
2023-04-08T05:26:53.330Z,3.58
2023-04-08T05:29:22.181Z,3.67
2023-04-08T05:31:50.521Z,3.90
2023-04-08T05:34:23.043Z,3.70
2023-04-08T05:36:52.872Z,4.15
2023-04-08T05:39:20.938Z,3.65
2023-04-08T05:41:48.826Z,3.92
2023-04-08T05:44:16.677Z,3.58
2023-04-08T05:46:44.596Z,3.60
2023-04-08T05:49:13.197Z,3.28
2023-04-08T05:51:42.569Z,3.20
2023-04-08T05:54:10.359Z,3.88
2023-04-08T05:56:38.172Z,3.10
2023-04-08T05:59:06.151Z,3.30
2023-04-08T06:01:34.141Z,2.92
2023-04-08T06:04:02.368Z,3.10
2023-04-08T06:06:30.440Z,3.05
2023-04-08T06:08:59.604Z,3.30
2023-04-08T06:11:27.428Z,3.20
2023-04-08T06:13:55.425Z,3.08
2023-04-08T06:16:23.350Z,3.10
2023-04-08T06:18:52.285Z,3.40
2023-04-08T06:21:20.441Z,2.92
2023-04-08T06:23:48.360Z,3.00
2023-04-08T06:26:18.109Z,2.80
2023-04-08T06:28:45.871Z,2.80
2023-04-08T06:31:13.719Z,2.83
2023-04-08T06:33:41.494Z,2.90
2023-04-08T06:36:09.645Z,2.97
2023-04-08T06:38:37.565Z,2.72
2023-04-08T06:41:06.418Z,2.63
2023-04-08T06:43:37.989Z,2.63
2023-04-08T06:46:06.493Z,2.30
2023-04-08T06:48:34.395Z,2.58
2023-04-08T06:51:02.339Z,2.40
2023-04-08T06:53:31.355Z,2.50
2023-04-08T06:55:59.700Z,2.67
2023-04-08T06:58:27.677Z,2.30
2023-04-08T07:00:57.472Z,2.42
2023-04-08T07:03:25.313Z,2.28
2023-04-08T07:05:53.678Z,2.25
2023-04-08T07:08:21.673Z,2.65
2023-04-08T07:10:49.792Z,1.90
2023-04-08T07:13:17.683Z,2.10
2023-04-08T07:15:45.472Z,2.00
2023-04-08T07:18:14.833Z,1.92
2023-04-08T07:20:42.821Z,2.00
2023-04-08T07:23:10.842Z,2.40
2023-04-08T07:25:38.791Z,2.25
2023-04-08T07:28:06.591Z,2.03
2023-04-08T07:30:34.445Z,2.10
2023-04-08T07:33:02.395Z,2.05
2023-04-08T07:35:32.064Z,2.00
2023-04-08T07:38:00.157Z,1.90
2023-04-08T07:40:27.960Z,1.90
2023-04-08T07:42:56.048Z,2.08
2023-04-08T07:45:23.933Z,1.90
2023-04-08T07:47:51.726Z,1.98
2023-04-08T07:50:19.807Z,2.20
2023-04-08T07:52:48.924Z,1.77
2023-04-08T07:55:16.800Z,2.20
2023-04-08T07:57:44.912Z,2.00
2023-04-08T08:00:20.827Z,1.70
2023-04-08T08:02:49.364Z,1.73
2023-04-08T08:05:17.425Z,1.80
2023-04-08T08:07:45.303Z,1.80
2023-04-08T08:10:14.519Z,1.83
2023-04-08T08:12:42.333Z,1.75
2023-04-08T08:15:11.461Z,1.67
2023-04-08T08:17:39.251Z,1.60
2023-04-08T08:20:08.497Z,1.60
2023-04-08T08:22:47.123Z,1.70
2023-04-08T08:25:26.879Z,1.63
2023-04-08T08:27:55.518Z,1.52
2023-04-08T08:30:23.499Z,2.78
2023-04-08T08:32:52.280Z,1.40
2023-04-08T08:35:20.468Z,1.20
2023-04-08T08:37:48.876Z,1.30
2023-04-08T08:40:16.929Z,1.55
2023-04-08T08:42:52.432Z,1.20
2023-04-08T08:45:20.891Z,1.30
2023-04-08T08:47:51.005Z,1.33
2023-04-08T08:50:19.765Z,1.40
2023-04-08T08:52:49.997Z,1.40
2023-04-08T08:55:35.085Z,1.30
2023-04-08T08:58:10.149Z,1.30
2023-04-08T09:00:39.198Z,1.48
2023-04-08T09:03:21.344Z,1.60
2023-04-08T09:05:50.920Z,1.85
2023-04-08T09:08:27.260Z,1.20
2023-04-08T09:10:55.476Z,1.35
2023-04-08T09:13:25.668Z,1.10
2023-04-08T09:16:05.163Z,1.95
2023-04-08T09:18:34.871Z,0.90
2023-04-08T09:21:04.022Z,0.90
2023-04-08T09:23:42.920Z,1.10
2023-04-08T09:26:12.895Z,0.70
2023-04-08T09:28:58.845Z,1.00
2023-04-08T09:31:28.425Z,0.90
2023-04-08T09:33:57.497Z,0.90
2023-04-08T09:36:26.652Z,1.02
2023-04-08T09:38:54.926Z,0.90
2023-04-08T09:41:24.322Z,1.13
2023-04-08T09:43:56.878Z,1.15
2023-04-08T09:46:28.549Z,1.23
2023-04-08T09:49:07.967Z,1.58
2023-04-08T09:51:41.811Z,1.58
2023-04-08T09:54:15.732Z,1.70
2023-04-08T09:56:48.153Z,1.45
2023-04-08T09:59:21.589Z,1.10
2023-04-08T10:01:55.030Z,3.88
2023-04-08T10:04:26.623Z,0.93
2023-04-08T10:06:58.479Z,1.00
2023-04-08T10:09:28.072Z,0.90
2023-04-08T10:11:56.912Z,0.77
2023-04-08T10:14:28.707Z,0.90
2023-04-08T10:17:27.661Z,0.70
2023-04-08T10:19:55.792Z,0.80
2023-04-08T10:22:49.227Z,0.80
2023-04-08T10:25:33.907Z,0.80
2023-04-08T10:28:03.435Z,0.70
2023-04-08T10:30:46.342Z,0.60
2023-04-08T10:33:16.570Z,1.00
2023-04-08T10:35:48.512Z,0.90
2023-04-08T10:38:17.727Z,0.60
2023-04-08T10:40:46.018Z,0.75
2023-04-08T10:43:16.161Z,0.70
2023-04-08T10:45:48.610Z,0.70
2023-04-08T10:48:19.009Z,0.50
2023-04-08T10:50:54.918Z,1.27
2023-04-08T10:53:28.348Z,0.80
2023-04-08T10:55:56.640Z,0.70
2023-04-08T10:58:24.514Z,0.70
2023-04-08T11:00:53.777Z,1.60
2023-04-08T11:03:21.806Z,0.70
2023-04-08T11:05:50.980Z,0.70
2023-04-08T11:08:20.928Z,0.73
2023-04-08T11:10:49.574Z,0.68
2023-04-08T11:13:17.586Z,0.50
2023-04-08T11:15:45.645Z,0.60
2023-04-08T11:18:15.089Z,0.70
2023-04-08T11:20:45.408Z,0.70
2023-04-08T11:23:14.871Z,2.33
2023-04-08T11:25:43.780Z,0.77
2023-04-08T11:28:14.768Z,0.80
2023-04-08T11:30:43.441Z,0.70
2023-04-08T11:33:11.719Z,0.60
2023-04-08T11:35:43.128Z,0.52
2023-04-08T11:38:11.201Z,0.60
2023-04-08T11:40:39.417Z,0.63
2023-04-08T11:43:10.885Z,0.52
2023-04-08T11:45:40.327Z,0.55
2023-04-08T11:48:11.992Z,0.60
2023-04-08T11:50:39.931Z,0.50
2023-04-08T11:53:19.723Z,0.80
2023-04-08T11:55:48.550Z,0.82
2023-04-08T11:58:16.896Z,0.40
2023-04-08T12:00:45.735Z,0.70
2023-04-08T12:03:14.186Z,0.63
2023-04-08T12:05:42.624Z,0.70
2023-04-08T12:08:37.353Z,0.65
2023-04-08T12:11:18.821Z,0.98
2023-04-08T12:13:50.218Z,0.60
2023-04-08T12:16:18.702Z,0.80
2023-04-08T12:18:46.784Z,0.70
2023-04-08T12:21:15.169Z,0.68
2023-04-08T12:23:44.580Z,0.60
2023-04-08T12:26:13.319Z,0.50
2023-04-08T12:28:41.522Z,0.57
2023-04-08T12:31:09.398Z,1.05
2023-04-08T12:33:37.216Z,0.60
2023-04-08T12:36:05.219Z,0.60
2023-04-08T12:38:33.561Z,0.82
2023-04-08T12:41:02.831Z,0.50
2023-04-08T12:43:32.722Z,0.60
2023-04-08T12:46:01.689Z,0.50
2023-04-08T12:48:29.509Z,0.40
2023-04-08T12:50:58.824Z,0.98
2023-04-08T12:53:26.666Z,0.50
2023-04-08T12:55:57.194Z,0.50
2023-04-08T12:58:26.528Z,0.60
2023-04-08T13:00:54.535Z,0.50
2023-04-08T13:03:22.891Z,1.40
2023-04-08T13:05:51.111Z,0.70
2023-04-08T13:08:19.288Z,0.60
2023-04-08T13:10:47.299Z,0.55
2023-04-08T13:13:15.167Z,0.50
2023-04-08T13:15:44.794Z,0.70
2023-04-08T13:18:12.599Z,0.60
2023-04-08T13:20:40.480Z,0.60
2023-04-08T13:23:08.342Z,0.82
2023-04-08T13:25:36.136Z,0.80
2023-04-08T13:28:04.001Z,0.70
2023-04-08T13:30:32.215Z,0.60
2023-04-08T13:33:01.803Z,0.60
2023-04-08T13:35:29.707Z,0.60
2023-04-08T13:37:57.589Z,0.52
2023-04-08T13:40:25.379Z,0.57
2023-04-08T13:42:53.287Z,0.57
2023-04-08T13:45:21.430Z,0.50
2023-04-08T13:47:49.519Z,0.43
2023-04-08T13:50:18.744Z,0.50
2023-04-08T13:52:46.728Z,0.43
2023-04-08T13:55:14.551Z,0.50
2023-04-08T13:57:42.340Z,0.50
2023-04-08T14:00:11.481Z,0.30
2023-04-08T14:02:39.472Z,1.40
2023-04-08T14:05:08.621Z,0.57
2023-04-08T14:07:37.807Z,0.60
2023-04-08T14:10:07.125Z,0.60
2023-04-08T14:12:35.026Z,0.68
2023-04-08T14:15:03.605Z,0.60
2023-04-08T14:17:32.056Z,0.60
2023-04-08T14:20:01.040Z,0.60
2023-04-08T14:22:28.897Z,0.50
2023-04-08T14:24:58.074Z,0.70
2023-04-08T14:27:26.284Z,0.60
2023-04-08T14:29:54.091Z,0.60
2023-04-08T14:32:22.106Z,0.65
2023-04-08T14:34:50.078Z,0.70
2023-04-08T14:37:19.582Z,0.77
2023-04-08T14:39:47.500Z,0.80
2023-04-08T14:42:18.249Z,0.50
2023-04-08T14:44:46.053Z,0.68
2023-04-08T14:47:13.882Z,0.55
2023-04-08T14:49:41.643Z,0.70
2023-04-08T14:52:09.474Z,0.88
2023-04-08T14:54:37.638Z,1.38
2023-04-08T14:57:05.503Z,0.70
2023-04-08T14:59:34.637Z,0.50
2023-04-08T15:02:02.489Z,0.60
2023-04-08T15:04:30.505Z,0.50
2023-04-08T15:06:58.388Z,0.80
2023-04-08T15:09:26.358Z,0.60
2023-04-08T15:11:54.149Z,0.90
2023-04-08T15:14:21.901Z,0.55
2023-04-08T15:16:51.402Z,0.70
2023-04-08T15:19:19.829Z,0.98
2023-04-08T15:21:47.720Z,0.65
2023-04-08T15:24:15.719Z,0.70
2023-04-08T15:26:43.535Z,0.70
2023-04-08T15:29:11.335Z,0.70
2023-04-08T15:31:39.151Z,0.70
2023-04-08T15:34:08.341Z,0.70
2023-04-08T15:36:37.806Z,0.80
2023-04-08T15:39:06.066Z,0.90
2023-04-08T15:41:33.978Z,1.00
2023-04-08T15:44:01.921Z,0.77
2023-04-08T15:46:29.769Z,1.05
2023-04-08T15:48:58.368Z,0.93
2023-04-08T15:51:28.977Z,0.90
2023-04-08T15:53:57.450Z,1.05
2023-04-08T15:56:27.008Z,1.60
2023-04-08T15:58:54.956Z,0.80
2023-04-08T16:01:22.710Z,1.10
2023-04-08T16:03:50.591Z,1.00
2023-04-08T16:06:18.566Z,1.40
2023-04-08T16:08:48.495Z,1.00
2023-04-08T16:11:17.578Z,3.67
2023-04-08T16:13:45.529Z,1.60
2023-04-08T16:16:13.429Z,1.30
2023-04-08T16:18:42.086Z,2.17
2023-04-08T16:21:09.860Z,1.50
2023-04-08T16:23:38.446Z,1.30
2023-04-08T16:26:08.801Z,1.15
2023-04-08T16:28:36.863Z,1.17
2023-04-08T16:31:04.828Z,1.27
2023-04-08T16:33:33.440Z,1.20
2023-04-08T16:36:03.417Z,1.20
2023-04-08T16:38:31.417Z,1.80
2023-04-08T16:40:59.478Z,1.60
2023-04-08T16:43:28.643Z,1.83
2023-04-08T16:45:57.165Z,1.80
2023-04-08T16:48:24.991Z,2.67
2023-04-08T16:50:52.739Z,2.85
2023-04-08T16:53:20.717Z,1.40
2023-04-08T16:55:48.640Z,1.92
2023-04-08T16:58:16.470Z,3.20
2023-04-08T17:00:45.639Z,3.35
2023-04-08T17:03:13.861Z,6.25
2023-04-08T17:05:42.336Z,4.30
2023-04-08T17:08:10.182Z,2.92
2023-04-08T17:10:38.135Z,2.92
2023-04-08T17:13:06.115Z,1.73
2023-04-08T17:15:36.029Z,4.60
2023-04-08T17:18:05.486Z,2.13
2023-04-08T17:20:33.228Z,2.42
2023-04-08T17:23:00.980Z,3.15
2023-04-08T17:25:28.875Z,4.40
2023-04-08T17:27:57.931Z,4.53
2023-04-08T17:30:25.845Z,4.53
2023-04-08T17:32:53.616Z,3.47
2023-04-08T17:35:22.813Z,3.08
2023-04-08T17:37:50.625Z,4.38
2023-04-08T17:40:18.745Z,5.35
2023-04-08T17:42:46.615Z,3.72
2023-04-08T17:45:15.018Z,4.30
2023-04-08T17:47:44.237Z,5.28
2023-04-08T17:50:12.237Z,6.47
2023-04-08T17:52:44.059Z,4.90
2023-04-08T17:55:11.800Z,5.47
2023-04-08T17:57:39.871Z,4.22
2023-04-08T18:00:08.670Z,5.50
2023-04-08T18:02:37.309Z,4.93
2023-04-08T18:05:06.588Z,4.53
2023-04-08T18:07:34.490Z,4.45
2023-04-08T18:10:03.701Z,5.22
2023-04-08T18:12:31.663Z,5.60
2023-04-08T18:15:00.101Z,5.88
2023-04-08T18:17:28.801Z,6.22
2023-04-08T18:19:56.556Z,6.35
2023-04-08T18:22:24.411Z,7.50
2023-04-08T18:24:52.245Z,8.45
2023-04-08T18:27:21.584Z,6.18
2023-04-08T18:29:49.314Z,5.25
2023-04-08T18:32:17.302Z,6.45
2023-04-08T18:34:45.048Z,5.85
2023-04-08T18:37:13.150Z,5.70
2023-04-08T18:39:41.496Z,6.47
2023-04-08T18:42:09.257Z,6.30
2023-04-08T18:44:38.745Z,5.93
2023-04-08T18:47:07.176Z,5.50
2023-04-08T18:49:35.461Z,4.85
2023-04-08T18:52:03.596Z,4.45
2023-04-08T18:54:31.843Z,4.80
2023-04-08T18:56:59.924Z,4.13
2023-04-08T18:59:29.903Z,5.15
2023-04-08T19:01:59.061Z,4.88
2023-04-08T19:04:27.465Z,4.22
2023-04-08T19:06:55.480Z,5.40
2023-04-08T19:09:23.513Z,4.80
2023-04-08T19:11:51.373Z,5.13
2023-04-08T19:14:19.214Z,5.15
2023-04-08T19:16:47.002Z,4.40
2023-04-08T19:19:16.271Z,4.38
2023-04-08T19:21:44.341Z,4.47
2023-04-08T19:24:12.155Z,4.65
2023-04-08T19:26:39.884Z,5.55
2023-04-08T19:29:09.363Z,4.97
2023-04-08T19:31:37.778Z,4.38
2023-04-08T19:34:05.783Z,5.05
2023-04-08T19:36:34.873Z,5.72
2023-04-08T19:39:03.617Z,5.13
2023-04-08T19:41:31.457Z,6.93
2023-04-08T19:43:59.263Z,5.40
2023-04-08T19:46:27.073Z,5.70
2023-04-08T19:48:56.239Z,4.68
2023-04-08T19:51:24.317Z,5.10
2023-04-08T19:53:55.333Z,5.60
2023-04-08T19:56:23.050Z,6.80
2023-04-08T19:58:51.026Z,6.13
2023-04-08T20:01:19.335Z,6.43
2023-04-08T20:03:50.537Z,7.05
2023-04-08T20:06:18.740Z,7.78
2023-04-08T20:08:46.956Z,8.45
2023-04-08T20:11:16.086Z,9.15
2023-04-08T20:13:43.961Z,7.97
2023-04-08T20:16:11.758Z,9.45
2023-04-08T20:18:39.743Z,7.95
2023-04-08T20:21:10.117Z,11.57
2023-04-08T20:23:43.991Z,13.85
2023-04-08T20:26:12.649Z,10.90
2023-04-08T20:28:43.870Z,9.43
2023-04-08T20:31:11.726Z,9.77
2023-04-08T20:33:43.764Z,9.98
2023-04-08T20:36:13.684Z,10.00
2023-04-08T20:38:42.486Z,10.05
2023-04-08T20:41:11.428Z,10.57
2023-04-08T20:43:39.419Z,10.27
2023-04-08T20:46:09.253Z,10.50
2023-04-08T20:48:37.244Z,10.77
2023-04-08T20:51:05.401Z,10.73
2023-04-08T20:53:34.482Z,10.57
2023-04-08T20:56:03.117Z,10.50
2023-04-08T20:58:31.157Z,12.10
2023-04-08T21:00:59.815Z,10.50
2023-04-08T21:03:29.185Z,11.00
2023-04-08T21:05:57.571Z,12.00
2023-04-08T21:08:25.394Z,8.88
2023-04-08T21:10:54.302Z,7.97
2023-04-08T21:13:22.199Z,10.40
2023-04-08T21:15:50.121Z,8.68
2023-04-08T21:18:17.905Z,8.23
2023-04-08T21:20:47.089Z,7.03
2023-04-08T21:23:15.041Z,7.28
2023-04-08T21:25:42.785Z,6.82
2023-04-08T21:28:10.484Z,6.20
2023-04-08T21:30:38.617Z,8.40
2023-04-08T21:33:06.497Z,6.95
2023-04-08T21:35:34.380Z,6.32
2023-04-08T21:38:03.523Z,6.30
2023-04-08T21:40:31.342Z,6.28
2023-04-08T21:42:59.109Z,6.60
2023-04-08T21:45:26.979Z,7.10
2023-04-08T21:47:55.188Z,6.65
2023-04-08T21:50:23.099Z,5.93
2023-04-08T21:52:51.023Z,8.38
2023-04-08T21:55:20.267Z,6.05
2023-04-08T21:57:48.964Z,6.15
2023-04-08T22:00:16.854Z,5.60
2023-04-08T22:02:45.275Z,5.10
2023-04-08T22:05:13.480Z,5.22
2023-04-08T22:07:41.727Z,5.10
2023-04-08T22:10:10.320Z,5.55
2023-04-08T22:12:39.517Z,5.50
2023-04-08T22:15:08.694Z,5.15
2023-04-08T22:17:36.896Z,5.03
2023-04-08T22:20:05.093Z,6.18
2023-04-08T22:22:32.866Z,5.15
2023-04-08T22:25:00.647Z,5.38
2023-04-08T22:27:29.199Z,6.00
2023-04-08T22:29:58.333Z,5.30
2023-04-08T22:32:26.149Z,5.40
2023-04-08T22:34:54.011Z,5.25
2023-04-08T22:37:21.798Z,5.55
2023-04-08T22:39:49.608Z,5.28
2023-04-08T22:42:17.508Z,5.72
2023-04-08T22:44:45.465Z,5.50
2023-04-08T22:47:14.983Z,5.72
2023-04-08T22:49:43.574Z,4.78
2023-04-08T22:52:11.598Z,5.80
2023-04-08T22:54:39.386Z,5.20
2023-04-08T22:57:07.262Z,4.85
2023-04-08T22:59:35.087Z,4.93
2023-04-08T23:02:03.169Z,5.18
2023-04-08T23:04:32.471Z,5.32
2023-04-08T23:07:00.377Z,4.85
2023-04-08T23:09:28.381Z,5.55
2023-04-08T23:11:56.400Z,4.97
2023-04-08T23:14:24.180Z,5.10
2023-04-08T23:16:52.044Z,5.40
2023-04-08T23:19:19.942Z,6.40
2023-04-08T23:21:49.113Z,5.35
2023-04-08T23:24:16.939Z,5.00
2023-04-08T23:26:45.399Z,5.18
2023-04-08T23:29:13.214Z,5.10
2023-04-08T23:31:41.219Z,4.65
2023-04-08T23:34:09.054Z,4.40
2023-04-08T23:36:36.881Z,4.18
2023-04-08T23:39:05.944Z,4.78
2023-04-08T23:41:33.855Z,4.57
2023-04-08T23:44:01.961Z,4.35
2023-04-08T23:46:29.763Z,4.50
2023-04-08T23:48:57.751Z,4.28
2023-04-08T23:51:25.958Z,4.38
2023-04-08T23:53:53.851Z,4.50
2023-04-08T23:56:23.868Z,4.70
2023-04-08T23:58:51.869Z,4.13
